createdAt,value
2023-02-04T00:02:04.739Z,99513.56
2023-02-04T00:04:31.154Z,99526.00
2023-02-04T00:06:57.661Z,99525.03
2023-02-04T00:09:24.074Z,99544.06
2023-02-04T00:11:50.528Z,99526.22
2023-02-04T00:14:16.940Z,99542.44
2023-02-04T00:16:43.473Z,99543.47
2023-02-04T00:19:09.866Z,99474.88
2023-02-04T00:21:36.337Z,99540.16
2023-02-04T00:24:02.854Z,99545.13
2023-02-04T00:26:29.357Z,99552.22
2023-02-04T00:28:56.220Z,99537.94
2023-02-04T00:31:23.411Z,99547.28
2023-02-04T00:33:49.950Z,99457.97
2023-02-04T00:36:16.381Z,99538.16
2023-02-04T00:38:42.849Z,99523.56
2023-02-04T00:41:09.335Z,99546.44
2023-02-04T00:43:35.792Z,99556.38
2023-02-04T00:46:04.878Z,99514.81
2023-02-04T00:48:31.321Z,99539.00
2023-02-04T00:50:57.726Z,99559.88
2023-02-04T00:53:24.171Z,99557.88
2023-02-04T00:55:50.614Z,99551.91
2023-02-04T00:58:17.077Z,99553.75
2023-02-04T01:00:43.829Z,99553.75
2023-02-04T01:03:10.387Z,99562.50
2023-02-04T01:05:37.010Z,99563.69
2023-02-04T01:08:05.079Z,99575.44
2023-02-04T01:10:31.968Z,99569.78
2023-02-04T01:12:58.621Z,99586.19
2023-02-04T01:15:26.776Z,99578.22
2023-02-04T01:17:53.819Z,99579.91
2023-02-04T01:20:20.409Z,99566.81
2023-02-04T01:22:48.615Z,99571.47
2023-02-04T01:25:15.214Z,99472.38
2023-02-04T01:27:42.604Z,99582.56
2023-02-04T01:30:10.963Z,99574.78
2023-02-04T01:32:37.566Z,99576.59
2023-02-04T01:35:04.559Z,99570.63
2023-02-04T01:37:32.696Z,99574.78
2023-02-04T01:39:59.197Z,99583.22
2023-02-04T01:42:25.656Z,99575.09
2023-02-04T01:44:52.848Z,99568.28
2023-02-04T01:47:21.547Z,99578.56
2023-02-04T01:49:52.671Z,99584.53
2023-02-04T01:52:20.022Z,99585.69
2023-02-04T01:54:46.966Z,99598.66
2023-02-04T01:57:16.068Z,99594.34
2023-02-04T01:59:47.168Z,99592.88
2023-02-04T02:02:43.522Z,99593.03
2023-02-04T02:05:13.115Z,99594.34
2023-02-04T02:07:39.791Z,99579.13
2023-02-04T02:10:08.661Z,99604.59
2023-02-04T02:12:36.735Z,99596.59
2023-02-04T02:15:04.060Z,99609.88
2023-02-04T02:17:30.970Z,99600.31
2023-02-04T02:19:57.407Z,99590.03
2023-02-04T02:22:33.273Z,99611.03
2023-02-04T02:24:59.919Z,99607.72
2023-02-04T02:27:26.357Z,99578.25
2023-02-04T02:29:52.917Z,99606.88
2023-02-04T02:32:19.476Z,99601.91
2023-02-04T02:34:46.821Z,99596.56
2023-02-04T02:37:13.964Z,99610.03
2023-02-04T02:39:44.316Z,99612.59
2023-02-04T02:42:16.115Z,99622.88
2023-02-04T02:44:45.714Z,99622.44
2023-02-04T02:47:17.280Z,99618.81
2023-02-04T02:49:44.404Z,99617.00
2023-02-04T02:52:12.690Z,99621.81
2023-02-04T02:54:40.516Z,99627.31
2023-02-04T02:57:13.950Z,99625.88
2023-02-04T02:59:41.040Z,99634.38
2023-02-04T03:02:09.851Z,99637.97
2023-02-04T03:04:41.754Z,99639.34
2023-02-04T03:07:10.846Z,99635.19
2023-02-04T03:09:37.573Z,99630.31
2023-02-04T03:12:06.200Z,99642.06
2023-02-04T03:14:35.104Z,99658.44
2023-02-04T03:17:03.700Z,99661.66
2023-02-04T03:19:30.292Z,99664.34
2023-02-04T03:21:57.964Z,99671.09
2023-02-04T03:24:25.033Z,99674.66
2023-02-04T03:26:51.967Z,99646.31
2023-02-04T03:29:18.602Z,99683.84
2023-02-04T03:31:45.262Z,99681.16
2023-02-04T03:34:11.812Z,99687.47
2023-02-04T03:36:38.347Z,99690.59
2023-02-04T03:39:04.873Z,99691.25
2023-02-04T03:41:32.258Z,99692.78
2023-02-04T03:43:58.747Z,99698.69
2023-02-04T03:46:25.926Z,99681.78
2023-02-04T03:48:52.528Z,99697.75
2023-02-04T03:51:18.931Z,99692.47
2023-02-04T03:53:45.481Z,99692.66
2023-02-04T03:56:11.918Z,99707.38
2023-02-04T03:58:38.383Z,99696.19
2023-02-04T04:01:04.974Z,99704.50
2023-02-04T04:03:31.374Z,99705.00
2023-02-04T04:05:57.864Z,99683.00
2023-02-04T04:08:25.323Z,99678.31
2023-02-04T04:10:51.754Z,99688.44
2023-02-04T04:13:18.205Z,99694.72
2023-02-04T04:15:45.409Z,99704.31
2023-02-04T04:18:11.863Z,99709.47
2023-02-04T04:20:38.582Z,99708.16
2023-02-04T04:23:05.060Z,99718.75
2023-02-04T04:25:31.509Z,99680.91
2023-02-04T04:27:58.032Z,99694.50
2023-02-04T04:30:25.034Z,99698.88
2023-02-04T04:32:51.457Z,99701.84
2023-02-04T04:35:17.871Z,99708.94
2023-02-04T04:37:44.294Z,99709.63
2023-02-04T04:40:12.740Z,99712.91
2023-02-04T04:42:39.186Z,99720.19
2023-02-04T04:45:08.960Z,99723.50
2023-02-04T04:47:35.392Z,99718.69
2023-02-04T04:50:01.863Z,99705.09
2023-02-04T04:52:28.258Z,99724.84
2023-02-04T04:54:57.076Z,99700.03
2023-02-04T04:57:23.556Z,99722.66
2023-02-04T04:59:49.987Z,99734.22
2023-02-04T05:02:16.457Z,99729.94
2023-02-04T05:04:42.976Z,99732.94
2023-02-04T05:07:09.512Z,99726.75
2023-02-04T05:09:35.941Z,99730.72
2023-02-04T05:12:02.744Z,99738.72
2023-02-04T05:14:29.189Z,99736.38
2023-02-04T05:16:55.720Z,99731.22
2023-02-04T05:19:22.130Z,99699.19
2023-02-04T05:21:48.575Z,99695.69
2023-02-04T05:24:15.051Z,99725.91
2023-02-04T05:26:41.552Z,99719.47
2023-02-04T05:29:10.397Z,99632.59
2023-02-04T05:31:37.240Z,99707.91
2023-02-04T05:34:03.671Z,99711.88
2023-02-04T05:36:30.133Z,99713.03
2023-02-04T05:38:56.592Z,99719.66
2023-02-04T05:41:23.027Z,99726.25
2023-02-04T05:43:49.472Z,99723.59
2023-02-04T05:46:15.934Z,99720.50
2023-02-04T05:48:42.416Z,99730.84
2023-02-04T05:51:08.814Z,99729.31
2023-02-04T05:53:35.365Z,99741.78
2023-02-04T05:56:02.247Z,99748.59
2023-02-04T05:58:33.610Z,99751.13
2023-02-04T06:01:04.486Z,99759.53
2023-02-04T06:03:31.299Z,99780.47
2023-02-04T06:05:57.793Z,99781.50
2023-02-04T06:08:24.651Z,99778.72
2023-02-04T06:10:51.110Z,99748.59
2023-02-04T06:13:17.953Z,99787.06
2023-02-04T06:15:44.366Z,99790.53
2023-02-04T06:18:10.962Z,99792.25
2023-02-04T06:20:37.416Z,99795.38
2023-02-04T06:23:03.838Z,99807.94
2023-02-04T06:25:30.393Z,99817.31
2023-02-04T06:27:56.890Z,99805.88
2023-02-04T06:30:23.418Z,99806.25
2023-02-04T06:32:49.888Z,99803.16
2023-02-04T06:35:16.574Z,99798.63
2023-02-04T06:37:43.208Z,99808.06
2023-02-04T06:40:10.969Z,99808.59
2023-02-04T06:42:37.482Z,99795.31
2023-02-04T06:45:05.043Z,99804.97
2023-02-04T06:47:31.572Z,99811.56
2023-02-04T06:49:57.977Z,99809.94
2023-02-04T06:52:24.505Z,99799.75
2023-02-04T06:54:50.983Z,99822.69
2023-02-04T06:57:17.538Z,99823.44
2023-02-04T06:59:44.040Z,99823.16
2023-02-04T07:02:13.064Z,99797.88
2023-02-04T07:04:39.551Z,99832.22
2023-02-04T07:07:06.169Z,99833.41
2023-02-04T07:09:32.641Z,99851.25
2023-02-04T07:11:59.063Z,99850.13
2023-02-04T07:14:25.529Z,99842.34
2023-02-04T07:16:52.101Z,99846.25
2023-02-04T07:19:20.229Z,99858.81
2023-02-04T07:21:47.598Z,99855.19
2023-02-04T07:24:14.017Z,99864.28
2023-02-04T07:26:40.853Z,99865.50
2023-02-04T07:29:12.207Z,99861.63
2023-02-04T07:31:41.408Z,99860.13
2023-02-04T07:34:08.122Z,99842.81
2023-02-04T07:36:34.691Z,99855.78
2023-02-04T07:39:01.219Z,99864.09
2023-02-04T07:41:27.727Z,99865.50
2023-02-04T07:43:54.112Z,99873.09
2023-02-04T07:46:20.636Z,99882.19
2023-02-04T07:48:47.128Z,99894.66
2023-02-04T07:51:13.553Z,99901.53
2023-02-04T07:53:39.976Z,99905.88
2023-02-04T07:56:06.665Z,99903.69
2023-02-04T07:58:33.209Z,99910.09
2023-02-04T08:00:59.756Z,99900.31
2023-02-04T08:03:26.166Z,99904.19
2023-02-04T08:05:53.084Z,99904.47
2023-02-04T08:08:20.267Z,99906.00
2023-02-04T08:10:46.745Z,99909.25
2023-02-04T08:13:13.595Z,99914.69
2023-02-04T08:15:40.085Z,99913.97
2023-02-04T08:18:06.678Z,99921.84
2023-02-04T08:20:33.890Z,99917.75
2023-02-04T08:23:00.582Z,99930.47
2023-02-04T08:25:28.897Z,99930.78
2023-02-04T08:27:55.876Z,99935.94
2023-02-04T08:30:22.536Z,99935.03
2023-02-04T08:32:48.965Z,99936.13
2023-02-04T08:35:16.110Z,99941.81
2023-02-04T08:37:42.553Z,99938.59
2023-02-04T08:40:09.720Z,99914.00
2023-02-04T08:42:36.669Z,99922.94
2023-02-04T08:45:03.831Z,99938.72
2023-02-04T08:47:30.248Z,99954.03
2023-02-04T08:49:56.972Z,99954.88
2023-02-04T08:52:23.747Z,99954.50
2023-02-04T08:54:50.154Z,99945.63
2023-02-04T08:57:16.607Z,99948.94
2023-02-04T08:59:42.996Z,99916.97
2023-02-04T09:02:10.293Z,99947.38
2023-02-04T09:04:37.371Z,99951.81
2023-02-04T09:07:03.895Z,99958.78
2023-02-04T09:09:30.321Z,99959.94
2023-02-04T09:11:56.872Z,99959.25
2023-02-04T09:14:23.409Z,99960.88
2023-02-04T09:16:49.925Z,99957.09
2023-02-04T09:19:19.647Z,99956.75
2023-02-04T09:21:46.055Z,99964.69
2023-02-04T09:24:12.454Z,99961.03
2023-02-04T09:26:38.915Z,99974.28
2023-02-04T09:29:05.332Z,99974.59
2023-02-04T09:31:31.901Z,99975.06
2023-02-04T09:33:59.940Z,99979.53
2023-02-04T09:36:29.669Z,99987.47
2023-02-04T09:38:56.340Z,99990.91
2023-02-04T09:41:22.877Z,99988.41
2023-02-04T09:43:50.132Z,99987.59
2023-02-04T09:46:23.705Z,99989.38
2023-02-04T09:48:50.970Z,99988.94
2023-02-04T09:51:20.982Z,99989.47
2023-02-04T09:53:48.894Z,99992.47
2023-02-04T09:56:15.412Z,99971.69
2023-02-04T09:58:42.309Z,99989.56
2023-02-04T10:01:17.676Z,99994.56
2023-02-04T10:03:46.979Z,100001.69
2023-02-04T10:06:20.390Z,99978.53
2023-02-04T10:08:49.684Z,99927.25
2023-02-04T10:11:18.621Z,99999.88
2023-02-04T10:13:50.885Z,100000.25
2023-02-04T10:16:29.588Z,100014.09
2023-02-04T10:19:01.742Z,100015.13
2023-02-04T10:21:32.099Z,100014.66
2023-02-04T10:24:01.184Z,100023.56
2023-02-04T10:26:30.188Z,100016.63
2023-02-04T10:33:11.098Z,100022.47
2023-02-04T10:35:48.209Z,100023.88
2023-02-04T10:38:14.750Z,100027.63
2023-02-04T10:40:41.788Z,100021.47
2023-02-04T10:43:11.279Z,100023.25
2023-02-04T10:45:38.720Z,100026.41
2023-02-04T10:48:05.636Z,100018.44
2023-02-04T10:50:32.652Z,100019.56
2023-02-04T10:53:20.281Z,100015.97
2023-02-04T10:55:49.190Z,100022.91
2023-02-04T10:58:22.380Z,100010.66
2023-02-04T11:00:48.848Z,99997.41
2023-02-04T11:03:22.440Z,100009.44
2023-02-04T11:05:49.353Z,100002.34
2023-02-04T11:08:23.110Z,100010.00
2023-02-04T11:10:58.158Z,100014.09
2023-02-04T11:14:05.477Z,100005.97
2023-02-04T11:16:36.966Z,100010.75
2023-02-04T11:19:07.155Z,100002.94
2023-02-04T11:21:33.507Z,99999.75
2023-02-04T11:24:22.932Z,99996.06
2023-02-04T11:27:04.948Z,99988.28
2023-02-04T11:29:38.717Z,99985.59
2023-02-04T11:32:26.729Z,99998.19
2023-02-04T11:34:55.763Z,100000.06
2023-02-04T11:37:36.311Z,100002.03
2023-02-04T11:40:20.955Z,100012.13
2023-02-04T11:42:47.836Z,99986.25
2023-02-04T11:45:25.427Z,100012.31
2023-02-04T11:47:52.216Z,100012.88
2023-02-04T11:50:33.861Z,100007.84
2023-02-04T11:53:04.715Z,100012.00
2023-02-04T11:55:35.089Z,100006.88
2023-02-04T11:58:01.549Z,100011.72
2023-02-04T12:00:33.170Z,100002.25
2023-02-04T12:03:07.844Z,100006.72
2023-02-04T12:05:44.147Z,100009.94
2023-02-04T12:08:26.292Z,100003.94
2023-02-04T12:10:58.500Z,100009.19
2023-02-04T12:13:26.490Z,100002.06
2023-02-04T12:16:05.394Z,99999.31
2023-02-04T12:18:33.795Z,100003.19
2023-02-04T12:21:01.074Z,100015.22
2023-02-04T12:23:29.396Z,100010.06
2023-02-04T12:25:56.057Z,100006.81
2023-02-04T12:28:23.359Z,99989.22
2023-02-04T12:30:50.199Z,100002.25
2023-02-04T12:33:16.660Z,99993.38
2023-02-04T12:35:43.230Z,100002.19
2023-02-04T12:38:10.329Z,100007.22
2023-02-04T12:40:37.476Z,100004.78
2023-02-04T12:43:04.436Z,100006.13
2023-02-04T12:45:31.533Z,99989.56
2023-02-04T12:47:58.248Z,100002.19
2023-02-04T12:50:26.049Z,99997.88
2023-02-04T12:52:54.863Z,99994.88
2023-02-04T12:55:22.773Z,99994.22
2023-02-04T12:57:49.756Z,100004.53
2023-02-04T13:00:18.307Z,100007.50
2023-02-04T13:02:45.009Z,99981.44
2023-02-04T13:05:11.970Z,100015.13
2023-02-04T13:07:40.463Z,100006.00
2023-02-04T13:10:08.981Z,100003.78
2023-02-04T13:12:35.587Z,100004.03
2023-02-04T13:15:02.068Z,99995.19
2023-02-04T13:17:28.548Z,100001.97
2023-02-04T13:19:55.000Z,100007.09
2023-02-04T13:22:21.411Z,100009.06
2023-02-04T13:24:47.891Z,100009.06
2023-02-04T13:27:15.297Z,100012.75
2023-02-04T13:29:42.075Z,100014.75
2023-02-04T13:32:09.468Z,100015.16
2023-02-04T13:34:36.301Z,100006.88
2023-02-04T13:37:02.858Z,100007.22
2023-02-04T13:39:29.872Z,100003.44
2023-02-04T13:41:56.362Z,100006.91
2023-02-04T13:44:22.801Z,100005.75
2023-02-04T13:46:49.234Z,100005.63
2023-02-04T13:49:15.740Z,100010.25
2023-02-04T13:51:42.144Z,100007.28
2023-02-04T13:54:08.689Z,100006.09
2023-02-04T13:56:35.143Z,100006.91
2023-02-04T13:59:01.884Z,100015.84
2023-02-04T14:01:28.399Z,100023.75
2023-02-04T14:03:54.967Z,100003.81
2023-02-04T14:06:22.224Z,100020.28
2023-02-04T14:08:48.816Z,100014.97
2023-02-04T14:11:15.333Z,100011.81
2023-02-04T14:13:41.842Z,100007.84
2023-02-04T14:16:09.319Z,100014.44
2023-02-04T14:18:35.867Z,100009.09
2023-02-04T14:21:02.381Z,100015.88
2023-02-04T14:23:28.888Z,100014.38
2023-02-04T14:25:55.403Z,100009.03
2023-02-04T14:28:21.993Z,100007.72
2023-02-04T14:30:48.485Z,100016.38
2023-02-04T14:33:15.849Z,100025.72
2023-02-04T14:35:42.277Z,100014.25
2023-02-04T14:38:09.174Z,99982.53
2023-02-04T14:40:35.632Z,100009.13
2023-02-04T14:43:02.061Z,100010.59
2023-02-04T14:45:28.590Z,100004.25
2023-02-04T14:47:57.023Z,100009.06
2023-02-04T14:50:27.019Z,99982.16
2023-02-04T14:52:54.416Z,100019.22
2023-02-04T14:55:20.856Z,100022.91
2023-02-04T14:57:47.267Z,100022.91
2023-02-04T15:00:14.653Z,100000.91
2023-02-04T15:02:42.232Z,100022.25
2023-02-04T15:05:10.116Z,100020.13
2023-02-04T15:07:37.206Z,100023.63
2023-02-04T15:10:03.970Z,100033.75
2023-02-04T15:12:30.390Z,100036.25
2023-02-04T15:14:56.861Z,100030.06
2023-02-04T15:17:24.324Z,100037.25
2023-02-04T15:19:50.767Z,100029.91
2023-02-04T15:22:17.160Z,100035.75
2023-02-04T15:24:43.626Z,100022.31
2023-02-04T15:27:10.128Z,99996.31
2023-02-04T15:29:36.538Z,100013.44
2023-02-04T15:32:03.047Z,100009.09
2023-02-04T15:34:30.553Z,100021.84
2023-02-04T15:36:56.987Z,100019.09
2023-02-04T15:39:23.487Z,100024.72
2023-02-04T15:41:50.215Z,100013.69
2023-02-04T15:44:16.579Z,99996.63
2023-02-04T15:46:43.019Z,100017.22
2023-02-04T15:49:09.460Z,100025.00
2023-02-04T15:51:35.984Z,100026.13
2023-02-04T15:54:02.440Z,100035.09
2023-02-04T15:56:28.901Z,100038.56
2023-02-04T15:58:56.341Z,100052.63
2023-02-04T16:01:22.824Z,100055.66
2023-02-04T16:03:51.077Z,100052.97
2023-02-04T16:06:17.529Z,100048.72
2023-02-04T16:08:43.903Z,100058.28
2023-02-04T16:11:10.390Z,100060.75
2023-02-04T16:13:37.159Z,100063.38
2023-02-04T16:16:03.718Z,100061.03
2023-02-04T16:18:30.794Z,100065.75
2023-02-04T16:20:57.206Z,100065.81
2023-02-04T16:23:23.710Z,100074.63
2023-02-04T16:25:50.234Z,100078.28
2023-02-04T16:28:16.735Z,100078.75
2023-02-04T16:30:43.685Z,100075.75
2023-02-04T16:33:10.797Z,100082.50
2023-02-04T16:35:58.440Z,100077.22
2023-02-04T16:38:26.028Z,100077.34
2023-02-04T16:40:52.999Z,100080.16
2023-02-04T16:43:20.019Z,100090.19
2023-02-04T16:45:47.477Z,100093.22
2023-02-04T16:48:13.910Z,100097.91
2023-02-04T16:50:40.444Z,100093.97
2023-02-04T16:53:07.475Z,100091.19
2023-02-04T16:55:34.998Z,100091.19
2023-02-04T16:58:01.672Z,100087.59
2023-02-04T17:00:28.390Z,100104.44
2023-02-04T17:02:55.050Z,100107.41
2023-02-04T17:05:21.584Z,100098.53
2023-02-04T17:07:48.322Z,100106.19
2023-02-04T17:10:15.099Z,100096.88
2023-02-04T17:12:41.574Z,100083.31
2023-02-04T17:15:08.524Z,100108.22
2023-02-04T17:17:35.125Z,100114.47
2023-02-04T17:20:01.571Z,100108.63
2023-02-04T17:22:27.984Z,100114.75
2023-02-04T17:24:55.461Z,100112.09
2023-02-04T17:27:21.861Z,100103.63
2023-02-04T17:29:48.493Z,100019.69
2023-02-04T17:32:14.899Z,100119.50
2023-02-04T17:34:41.344Z,100113.19
2023-02-04T17:37:08.502Z,100112.53
2023-02-04T17:39:34.939Z,100110.16
2023-02-04T17:42:01.416Z,100100.56
2023-02-04T17:44:28.470Z,100103.66
2023-02-04T17:46:55.048Z,100115.59
2023-02-04T17:49:21.521Z,100121.31
2023-02-04T17:51:47.942Z,100114.78
2023-02-04T17:54:14.590Z,100121.31
2023-02-04T17:56:41.026Z,100105.44
2023-02-04T17:59:11.739Z,100125.06
2023-02-04T18:01:38.673Z,100124.50
2023-02-04T18:04:11.862Z,100127.97
2023-02-04T18:06:38.337Z,100095.69
2023-02-04T18:09:11.879Z,100131.28
2023-02-04T18:11:40.032Z,100128.66
2023-02-04T18:14:20.587Z,100134.25
2023-02-04T18:16:47.153Z,100116.69
2023-02-04T18:19:29.937Z,100127.28
2023-02-04T18:21:58.388Z,100132.81
2023-02-04T18:24:30.232Z,100122.50
2023-02-04T18:27:01.593Z,100120.53
2023-02-04T18:29:40.513Z,100132.53
2023-02-04T18:32:21.091Z,100123.03
2023-02-04T18:34:55.650Z,100121.34
2023-02-04T18:37:36.229Z,100066.63
2023-02-04T18:40:08.836Z,100129.31
2023-02-04T18:42:40.912Z,100131.34
2023-02-04T18:45:27.138Z,100134.81
2023-02-04T18:47:55.598Z,100140.34
2023-02-04T18:50:28.070Z,100126.22
2023-02-04T18:52:54.617Z,100129.72
2023-02-04T18:55:31.906Z,100137.81
2023-02-04T18:58:22.806Z,100142.00
2023-02-04T19:00:53.059Z,100148.50
2023-02-04T19:03:29.071Z,100153.03
2023-02-04T19:05:58.450Z,100147.94
2023-02-04T19:08:28.078Z,100153.31
2023-02-04T19:10:57.495Z,100151.09
2023-02-04T19:13:38.271Z,100161.91
2023-02-04T19:16:14.312Z,100161.31
2023-02-04T19:18:43.905Z,100166.25
2023-02-04T19:21:21.695Z,100150.44
2023-02-04T19:23:50.172Z,100098.81
2023-02-04T19:26:29.022Z,100157.16
2023-02-04T19:28:55.985Z,100158.25
2023-02-04T19:31:22.522Z,100157.78
2023-02-04T19:33:50.558Z,100151.50
2023-02-04T19:36:37.917Z,100137.06
2023-02-04T19:39:27.300Z,100154.50
2023-02-04T19:41:54.079Z,100146.84
2023-02-04T19:44:34.905Z,100155.75
2023-02-04T19:47:26.271Z,100168.59
2023-02-04T19:50:02.891Z,100123.16
2023-02-04T19:52:34.839Z,100134.97
2023-02-04T19:55:16.352Z,100162.50
2023-02-04T19:57:44.755Z,100133.88
2023-02-04T20:00:36.169Z,100152.84
2023-02-04T20:03:14.553Z,100160.16
2023-02-04T20:05:41.538Z,100130.19
2023-02-04T20:08:39.782Z,100153.69
2023-02-04T20:11:15.261Z,100143.78
2023-02-04T20:13:41.675Z,100150.84
2023-02-04T20:16:39.251Z,100156.44
2023-02-04T20:19:37.770Z,100154.03
2023-02-04T20:22:38.546Z,100156.53
2023-02-04T20:25:34.180Z,100161.81
2023-02-04T20:28:12.072Z,100155.81
2023-02-04T20:30:38.651Z,100126.81
2023-02-04T20:33:28.526Z,100161.38
2023-02-04T20:36:26.010Z,100167.44
2023-02-04T20:39:24.584Z,100171.75
2023-02-04T20:41:51.274Z,100189.22
2023-02-04T20:44:26.090Z,100186.34
2023-02-04T20:46:58.181Z,100177.03
2023-02-04T20:49:26.663Z,100194.94
2023-02-04T20:52:00.055Z,100192.78
2023-02-04T20:54:30.332Z,100194.47
2023-02-04T20:57:15.382Z,100188.22
2023-02-04T20:59:43.002Z,100187.97
2023-02-04T21:02:21.049Z,100191.09
2023-02-04T21:04:53.765Z,100167.06
2023-02-04T21:07:22.431Z,100184.56
2023-02-04T21:09:49.398Z,100187.09
2023-02-04T21:12:16.571Z,100164.72
2023-02-04T21:14:42.987Z,100190.41
2023-02-04T21:17:09.456Z,100189.09
2023-02-04T21:19:35.956Z,100144.06
2023-02-04T21:22:02.518Z,100180.03
2023-02-04T21:24:31.749Z,100198.06
2023-02-04T21:26:58.709Z,100194.41
2023-02-04T21:29:26.043Z,100200.72
2023-02-04T21:31:54.362Z,100192.25
2023-02-04T21:34:20.937Z,100191.13
2023-02-04T21:36:47.439Z,100196.78
2023-02-04T21:39:13.883Z,100189.22
2023-02-04T21:41:40.372Z,100169.13
2023-02-04T21:44:06.777Z,100190.19
2023-02-04T21:46:33.273Z,100190.66
2023-02-04T21:48:59.774Z,100189.09
2023-02-04T21:51:28.311Z,100194.97
2023-02-04T21:53:54.776Z,100184.09
2023-02-04T21:56:22.214Z,100190.28
2023-02-04T21:58:48.920Z,100192.47
2023-02-04T22:01:15.371Z,100183.38
2023-02-04T22:03:41.801Z,100189.59
2023-02-04T22:06:08.344Z,100184.44
2023-02-04T22:08:34.755Z,100193.03
2023-02-04T22:11:01.258Z,100196.38
2023-02-04T22:13:27.715Z,100182.53
2023-02-04T22:15:54.166Z,100191.69
2023-02-04T22:18:20.749Z,100200.09
2023-02-04T22:20:47.283Z,100182.50
2023-02-04T22:23:13.811Z,100197.63
2023-02-04T22:25:40.289Z,100197.50
2023-02-04T22:28:06.802Z,100204.91
2023-02-04T22:30:33.364Z,100188.47
2023-02-04T22:33:01.585Z,100195.16
2023-02-04T22:35:29.808Z,100185.47
2023-02-04T22:37:57.493Z,100189.41
2023-02-04T22:40:23.986Z,100180.69
2023-02-04T22:42:50.363Z,100179.59
2023-02-04T22:45:16.949Z,100149.25
2023-02-04T22:47:43.607Z,100177.72
2023-02-04T22:50:10.319Z,100184.28
2023-02-04T22:52:36.787Z,100182.72
2023-02-04T22:55:04.480Z,100186.19
2023-02-04T22:57:30.887Z,100191.28
2023-02-04T22:59:57.404Z,100198.28
2023-02-04T23:02:23.837Z,100197.78
2023-02-04T23:04:51.053Z,100198.56
2023-02-04T23:07:17.492Z,100197.78
2023-02-04T23:09:43.995Z,100194.44
2023-02-04T23:12:13.332Z,100197.53
2023-02-04T23:14:42.811Z,100195.13
2023-02-04T23:17:10.280Z,100198.47
2023-02-04T23:19:36.975Z,100193.16
2023-02-04T23:22:04.851Z,100192.31
2023-02-04T23:24:31.575Z,100194.22
2023-02-04T23:27:00.918Z,100199.03
2023-02-04T23:29:28.472Z,100199.91
2023-02-04T23:31:55.872Z,100166.91
2023-02-04T23:34:22.498Z,100196.94
2023-02-04T23:36:51.134Z,100196.44
2023-02-04T23:39:21.015Z,100202.09
2023-02-04T23:41:48.397Z,100199.72
2023-02-04T23:44:15.165Z,100197.50
2023-02-04T23:46:41.822Z,100198.22
2023-02-04T23:49:08.716Z,100197.63
2023-02-04T23:51:35.595Z,100187.00
2023-02-04T23:54:02.113Z,100186.19
2023-02-04T23:56:29.029Z,100199.56
2023-02-04T23:58:55.742Z,100156.75
